createdAt,value
2018-10-16T00:04:18.697Z,12.10
2018-10-16T00:14:21.966Z,12.20
2018-10-16T00:24:25.614Z,12.10
2018-10-16T00:34:28.874Z,12.00
2018-10-16T00:44:32.124Z,11.80
2018-10-16T00:54:35.372Z,11.80
2018-10-16T01:04:38.601Z,11.80
2018-10-16T01:14:41.828Z,11.70
2018-10-16T01:24:45.104Z,11.70
2018-10-16T01:34:48.320Z,11.60
2018-10-16T01:44:51.584Z,11.60
2018-10-16T01:54:55.657Z,11.50
2018-10-16T02:04:58.964Z,11.30
2018-10-16T02:15:02.241Z,11.20
2018-10-16T02:25:05.504Z,11.00
2018-10-16T02:35:09.821Z,10.80
2018-10-16T02:45:13.084Z,10.80
2018-10-16T02:55:16.312Z,10.70
2018-10-16T03:05:19.537Z,10.70
2018-10-16T03:15:22.766Z,10.90
2018-10-16T03:25:25.976Z,10.90
2018-10-16T03:35:29.876Z,10.70
2018-10-16T03:45:33.478Z,10.60
2018-10-16T03:55:36.705Z,10.50
2018-10-16T04:05:40.143Z,10.50
2018-10-16T04:15:43.353Z,10.50
2018-10-16T04:25:46.579Z,10.60
2018-10-16T04:35:50.244Z,10.60
2018-10-16T04:45:53.667Z,10.50
2018-10-16T04:55:56.903Z,10.50
2018-10-16T05:06:00.176Z,10.40
2018-10-16T05:16:04.192Z,10.40
2018-10-16T05:26:07.481Z,10.40
2018-10-16T05:36:11.370Z,10.30
2018-10-16T05:46:14.620Z,10.20
2018-10-16T05:56:18.183Z,10.10
2018-10-16T06:06:21.506Z,10.10
2018-10-16T06:16:24.749Z,10.20
2018-10-16T06:26:28.002Z,10.20
2018-10-16T06:36:31.238Z,10.40
2018-10-16T06:46:34.848Z,10.40
2018-10-16T06:56:38.029Z,10.50
2018-10-16T07:06:41.853Z,10.70
2018-10-16T07:16:45.098Z,10.70
2018-10-16T07:26:48.378Z,11.00
2018-10-16T07:36:51.663Z,11.20
2018-10-16T07:46:55.021Z,11.40
2018-10-16T07:56:58.341Z,11.50
2018-10-16T08:07:01.561Z,12.10
2018-10-16T08:17:05.401Z,12.50
2018-10-16T08:27:08.621Z,12.60
2018-10-16T08:37:13.294Z,13.00
2018-10-16T08:49:33.433Z,13.40
2018-10-16T08:59:37.021Z,13.80
2018-10-16T09:09:40.644Z,14.20
2018-10-16T09:19:44.244Z,14.60
2018-10-16T09:29:47.568Z,14.90
2018-10-16T09:39:51.084Z,15.30
2018-10-16T09:49:54.812Z,15.60
2018-10-16T09:59:58.215Z,15.80
2018-10-16T10:10:01.596Z,16.10
2018-10-16T10:20:05.176Z,16.50
2018-10-16T10:30:11.384Z,16.80
2018-10-16T10:40:16.104Z,17.20
2018-10-16T10:50:19.738Z,17.50
2018-10-16T11:00:22.936Z,17.70
2018-10-16T11:10:26.738Z,18.00
2018-10-16T11:20:30.151Z,18.30
2018-10-16T11:30:33.553Z,18.60
2018-10-16T11:40:36.847Z,19.20
2018-10-16T11:50:40.192Z,19.60
2018-10-16T12:00:43.538Z,20.20
2018-10-16T12:10:46.944Z,20.70
2018-10-16T12:20:59.761Z,21.20
2018-10-16T12:31:03.088Z,21.40
2018-10-16T12:41:06.404Z,21.10
2018-10-16T12:51:09.747Z,20.90
2018-10-16T13:01:12.907Z,20.80
2018-10-16T13:11:16.209Z,20.90
2018-10-16T13:21:19.395Z,21.10
2018-10-16T13:31:22.623Z,21.30
2018-10-16T13:41:26.007Z,21.20
2018-10-16T13:51:29.245Z,21.00
2018-10-16T14:01:32.481Z,21.00
2018-10-16T14:11:35.824Z,20.90
2018-10-16T14:21:39.239Z,21.10
2018-10-16T14:31:42.547Z,21.10
2018-10-16T14:41:45.772Z,20.80
2018-10-16T14:51:49.068Z,20.60
2018-10-16T15:01:52.324Z,20.30
2018-10-16T15:11:55.765Z,20.10
2018-10-16T15:21:59.045Z,20.00
2018-10-16T15:32:02.309Z,20.00
2018-10-16T15:42:05.919Z,19.90
2018-10-16T15:52:10.933Z,19.80
2018-10-16T16:02:14.324Z,19.60
2018-10-16T16:12:17.625Z,19.40
2018-10-16T16:22:20.937Z,19.30
2018-10-16T16:32:24.297Z,19.20
2018-10-16T16:42:27.687Z,19.00
2018-10-16T16:52:31.032Z,18.90
2018-10-16T17:02:34.349Z,18.90
2018-10-16T17:12:38.275Z,19.10
2018-10-16T17:22:41.632Z,18.90
2018-10-16T17:32:45.156Z,18.70
2018-10-16T17:42:48.607Z,18.50
2018-10-16T17:52:51.945Z,18.30
2018-10-16T18:02:55.378Z,18.10
2018-10-16T18:12:58.652Z,18.00
2018-10-16T18:23:02.014Z,17.80
2018-10-16T18:33:05.737Z,17.70
2018-10-16T18:43:08.984Z,17.60
2018-10-16T18:53:12.392Z,17.60
2018-10-16T19:03:15.696Z,17.50
2018-10-16T19:13:19.027Z,17.40
2018-10-16T19:23:22.369Z,17.20
2018-10-16T19:33:26.063Z,17.00
2018-10-16T19:43:29.353Z,16.80
2018-10-16T19:53:32.704Z,16.70
2018-10-16T20:03:36.061Z,16.50
2018-10-16T20:13:39.388Z,16.30
2018-10-16T20:23:42.728Z,16.10
2018-10-16T20:33:46.707Z,16.00
2018-10-16T20:43:50.051Z,15.80
2018-10-16T20:53:53.409Z,15.60
2018-10-16T21:03:56.748Z,15.40
2018-10-16T21:13:59.996Z,15.30
2018-10-16T21:24:03.420Z,15.20
2018-10-16T21:34:06.864Z,15.10
2018-10-16T21:44:10.098Z,15.00
2018-10-16T21:54:13.312Z,14.80
2018-10-16T22:04:16.520Z,14.60
2018-10-16T22:14:19.735Z,14.60
2018-10-16T22:24:22.980Z,14.50
2018-10-16T22:34:26.217Z,14.40
2018-10-16T22:44:29.496Z,14.30
2018-10-16T22:54:32.708Z,14.20
2018-10-16T23:04:35.940Z,14.10
2018-10-16T23:14:39.155Z,13.80
2018-10-16T23:24:42.439Z,13.60
2018-10-16T23:34:45.702Z,13.70
2018-10-16T23:44:48.927Z,13.90
2018-10-16T23:54:52.509Z,13.90
